createdAt,value
2022-09-30T00:03:41.624Z,0.00
2022-09-30T00:18:42.291Z,0.00
2022-09-30T00:33:42.363Z,0.00
2022-09-30T00:48:42.485Z,0.00
2022-09-30T01:03:42.593Z,0.00
2022-09-30T01:18:42.703Z,0.00
2022-09-30T01:33:42.842Z,0.00
2022-09-30T01:48:42.917Z,0.00
2022-09-30T02:03:43.067Z,0.00
2022-09-30T02:18:43.141Z,0.00
2022-09-30T02:33:43.821Z,0.00
2022-09-30T02:48:43.900Z,0.00
2022-09-30T03:03:44.030Z,0.00
2022-09-30T03:18:44.115Z,0.00
2022-09-30T03:33:44.282Z,0.00
2022-09-30T03:48:44.375Z,0.00
2022-09-30T04:03:44.497Z,0.00
2022-09-30T04:18:44.580Z,0.00
2022-09-30T04:33:44.672Z,0.00
2022-09-30T04:48:44.789Z,16.00
2022-09-30T05:03:44.889Z,128.00
2022-09-30T05:18:44.995Z,440.00
2022-09-30T05:33:45.149Z,924.00
2022-09-30T05:48:45.309Z,1456.00
2022-09-30T06:03:46.326Z,2016.00
2022-09-30T06:18:46.458Z,2700.00
2022-09-30T06:33:47.843Z,3160.00
2022-09-30T06:48:47.967Z,3592.00
2022-09-30T07:03:51.482Z,4268.00
2022-09-30T07:18:53.164Z,5212.00
2022-09-30T07:33:53.341Z,5880.00
2022-09-30T07:48:53.448Z,6136.00
2022-09-30T08:03:53.537Z,7920.00
2022-09-30T08:18:53.705Z,13816.00
2022-09-30T08:33:53.787Z,19040.00
2022-09-30T08:48:53.917Z,23840.00
2022-09-30T09:03:53.968Z,32864.00
2022-09-30T09:18:54.123Z,37728.00
2022-09-30T09:33:54.206Z,37856.00
2022-09-30T09:48:54.297Z,39680.00
2022-09-30T10:03:54.590Z,50976.00
2022-09-30T10:18:54.720Z,63488.00
2022-09-30T10:33:54.608Z,58912.00
2022-09-30T10:48:54.730Z,63680.00
2022-09-30T11:03:54.989Z,86752.00
2022-09-30T11:18:55.056Z,90944.00
2022-09-30T11:33:55.034Z,79264.00
2022-09-30T11:48:55.155Z,71808.00
2022-09-30T12:03:55.408Z,87328.00
2022-09-30T12:18:55.586Z,15636.00
2022-09-30T12:33:55.662Z,11384.00
2022-09-30T12:48:55.801Z,112896.00
2022-09-30T13:03:55.890Z,80928.00
2022-09-30T13:18:55.986Z,97216.00
2022-09-30T13:33:56.054Z,101984.00
2022-09-30T13:48:56.157Z,85568.00
2022-09-30T14:03:56.341Z,83328.00
2022-09-30T14:18:56.443Z,83104.00
2022-09-30T14:33:56.444Z,76160.00
2022-09-30T14:48:56.587Z,62144.00
2022-09-30T15:03:56.621Z,8664.00
2022-09-30T15:18:56.757Z,5600.00
2022-09-30T15:33:56.804Z,4780.00
2022-09-30T15:48:56.905Z,2952.00
2022-09-30T16:03:57.022Z,2420.00
2022-09-30T16:18:57.197Z,1396.00
2022-09-30T16:33:57.221Z,540.00
2022-09-30T16:48:57.302Z,208.00
2022-09-30T17:03:57.404Z,28.00
2022-09-30T17:18:57.539Z,0.00
2022-09-30T17:33:57.574Z,0.00
2022-09-30T17:48:57.713Z,0.00
2022-09-30T18:03:57.807Z,0.00
2022-09-30T18:18:58.007Z,0.00
2022-09-30T18:33:58.009Z,0.00
2022-09-30T18:48:58.216Z,0.00
2022-09-30T19:03:58.301Z,0.00
2022-09-30T19:18:58.454Z,0.00
2022-09-30T19:34:00.684Z,0.00
2022-09-30T19:49:00.904Z,0.00
2022-09-30T20:04:00.963Z,0.00
2022-09-30T20:19:02.566Z,0.00
2022-09-30T20:34:02.521Z,0.00
2022-09-30T20:49:02.618Z,0.00
2022-09-30T21:04:02.701Z,0.00
2022-09-30T21:19:02.856Z,0.00
2022-09-30T21:34:03.028Z,0.00
2022-09-30T21:49:03.197Z,0.00
2022-09-30T22:04:03.738Z,0.00
2022-09-30T22:19:04.031Z,0.00
2022-09-30T22:34:03.939Z,0.00
2022-09-30T22:49:04.098Z,0.00
2022-09-30T23:04:04.360Z,0.00
2022-09-30T23:19:04.432Z,0.00
2022-09-30T23:34:04.506Z,0.00
2022-09-30T23:49:05.136Z,0.00
